createdAt,value
2023-01-06T00:00:30.474Z,4.03
2023-01-06T00:02:56.816Z,3.53
2023-01-06T00:05:23.214Z,4.18
2023-01-06T00:07:50.825Z,3.90
2023-01-06T00:10:17.329Z,4.57
2023-01-06T00:12:48.041Z,4.20
2023-01-06T00:15:15.703Z,4.47
2023-01-06T00:17:42.182Z,4.10
2023-01-06T00:20:09.642Z,4.68
2023-01-06T00:22:36.611Z,4.25
2023-01-06T00:25:03.064Z,4.07
2023-01-06T00:27:31.716Z,4.22
2023-01-06T00:29:58.132Z,4.70
2023-01-06T00:32:24.520Z,5.22
2023-01-06T00:34:50.812Z,5.20
2023-01-06T00:37:17.117Z,6.32
2023-01-06T00:39:43.380Z,6.78
2023-01-06T00:42:09.679Z,5.07
2023-01-06T00:44:39.974Z,5.95
2023-01-06T00:47:10.703Z,6.72
2023-01-06T00:49:37.371Z,6.78
2023-01-06T00:52:03.981Z,5.80
2023-01-06T00:54:30.343Z,7.20
2023-01-06T00:56:56.785Z,7.35
2023-01-06T00:59:25.860Z,7.25
2023-01-06T01:01:56.264Z,7.63
2023-01-06T01:04:24.070Z,7.85
2023-01-06T01:06:51.051Z,8.75
2023-01-06T01:09:21.858Z,8.90
2023-01-06T01:12:07.325Z,8.57
2023-01-06T01:14:34.176Z,7.82
2023-01-06T01:17:00.712Z,8.02
2023-01-06T01:19:28.423Z,8.40
2023-01-06T01:21:54.904Z,10.32
2023-01-06T01:24:22.356Z,9.77
2023-01-06T01:26:48.690Z,8.38
2023-01-06T01:29:16.908Z,10.73
2023-01-06T01:31:44.111Z,10.68
2023-01-06T01:34:12.283Z,11.32
2023-01-06T01:36:41.139Z,12.45
2023-01-06T01:39:08.314Z,10.70
2023-01-06T01:41:34.593Z,12.50
2023-01-06T01:44:04.131Z,12.02
2023-01-06T01:46:43.355Z,12.30
2023-01-06T01:49:23.433Z,11.75
2023-01-06T01:51:51.945Z,11.55
2023-01-06T01:54:24.432Z,12.07
2023-01-06T01:56:58.251Z,10.75
2023-01-06T01:59:29.393Z,11.90
2023-01-06T02:01:55.923Z,11.13
2023-01-06T02:04:25.721Z,9.93
2023-01-06T02:06:52.561Z,9.93
2023-01-06T02:09:25.509Z,10.27
2023-01-06T02:11:52.168Z,10.35
2023-01-06T02:14:21.768Z,11.15
2023-01-06T02:17:06.688Z,11.30
2023-01-06T02:20:16.975Z,9.48
2023-01-06T02:23:26.442Z,8.75
2023-01-06T02:26:37.646Z,8.85
2023-01-06T02:29:19.093Z,7.90
2023-01-06T02:32:26.021Z,9.07
2023-01-06T02:35:01.363Z,8.65
2023-01-06T02:37:43.613Z,10.55
2023-01-06T02:40:47.336Z,9.50
2023-01-06T02:43:42.275Z,9.20
2023-01-06T02:46:22.064Z,10.18
2023-01-06T02:49:07.799Z,8.93
2023-01-06T02:54:28.401Z,6.82
2023-01-06T02:57:05.352Z,7.88
2023-01-06T02:59:36.129Z,7.28
2023-01-06T03:02:04.457Z,7.30
2023-01-06T03:04:36.489Z,8.43
2023-01-06T03:07:05.199Z,9.00
2023-01-06T03:09:34.846Z,10.93
2023-01-06T03:12:07.225Z,11.02
2023-01-06T03:14:40.824Z,10.45
2023-01-06T03:17:07.201Z,10.27
2023-01-06T03:19:34.160Z,11.48
2023-01-06T03:22:02.546Z,9.93
2023-01-06T03:24:29.120Z,11.43
2023-01-06T03:26:56.119Z,9.43
2023-01-06T03:29:23.253Z,10.38
2023-01-06T03:31:57.329Z,9.57
2023-01-06T03:34:32.801Z,10.27
2023-01-06T03:37:16.211Z,9.30
2023-01-06T03:40:08.863Z,9.90
2023-01-06T03:43:21.709Z,8.93
2023-01-06T03:46:06.997Z,8.90
2023-01-06T03:48:52.800Z,7.45
2023-01-06T03:54:04.286Z,8.00
2023-01-06T03:56:39.580Z,7.88
2023-01-06T03:59:11.007Z,7.35
2023-01-06T04:01:39.361Z,6.45
2023-01-06T04:06:41.068Z,6.30
2023-01-06T04:09:07.306Z,5.82
2023-01-06T04:11:52.076Z,5.75
2023-01-06T04:14:18.285Z,7.03
2023-01-06T04:16:44.625Z,5.45
2023-01-06T04:19:10.878Z,5.25
2023-01-06T04:21:37.211Z,5.45
2023-01-06T04:24:03.664Z,4.93
2023-01-06T04:26:29.878Z,4.90
2023-01-06T04:28:56.375Z,5.20
2023-01-06T04:31:22.615Z,3.72
2023-01-06T04:35:29.178Z,6.32
2023-01-06T04:37:55.386Z,5.35
2023-01-06T04:40:21.957Z,4.78
2023-01-06T04:44:15.554Z,3.93
2023-01-06T04:46:41.867Z,3.60
2023-01-06T04:49:08.188Z,3.88
2023-01-06T04:51:34.397Z,3.90
2023-01-06T04:54:00.621Z,4.70
2023-01-06T04:56:27.050Z,4.72
2023-01-06T04:58:55.255Z,4.97
2023-01-06T05:01:21.694Z,5.82
2023-01-06T05:03:48.133Z,4.55
2023-01-06T05:06:14.946Z,5.47
2023-01-06T05:08:42.216Z,5.15
2023-01-06T05:11:15.753Z,4.28
2023-01-06T05:13:42.032Z,5.05
2023-01-06T05:16:28.732Z,4.35
2023-01-06T05:18:55.964Z,4.00
2023-01-06T05:21:24.720Z,4.38
2023-01-06T05:23:51.344Z,4.35
2023-01-06T05:26:22.006Z,4.28
2023-01-06T05:28:48.273Z,5.55
2023-01-06T05:31:14.572Z,4.78
2023-01-06T05:33:40.832Z,6.30
2023-01-06T05:36:10.463Z,5.70
2023-01-06T05:38:36.684Z,5.60
2023-01-06T05:41:03.297Z,5.50
2023-01-06T05:43:29.882Z,5.30
2023-01-06T05:45:56.244Z,6.15
2023-01-06T05:48:27.068Z,4.20
2023-01-06T05:50:59.954Z,5.55
2023-01-06T05:53:26.171Z,4.60
2023-01-06T05:55:52.380Z,4.45
2023-01-06T05:58:18.587Z,3.47
2023-01-06T06:00:44.794Z,2.92
2023-01-06T06:03:10.988Z,3.45
2023-01-06T06:05:37.196Z,2.53
2023-01-06T06:08:03.859Z,2.70
2023-01-06T06:10:30.070Z,2.63
2023-01-06T06:12:56.277Z,3.05
2023-01-06T06:15:22.481Z,2.90
2023-01-06T06:17:48.683Z,2.63
2023-01-06T06:20:14.925Z,2.65
2023-01-06T06:22:41.135Z,3.22
2023-01-06T06:25:07.531Z,2.92
2023-01-06T06:27:33.831Z,2.20
2023-01-06T06:30:00.054Z,2.38
2023-01-06T06:32:29.403Z,1.80
2023-01-06T06:34:55.635Z,2.10
2023-01-06T06:37:21.859Z,2.05
2023-01-06T06:39:48.084Z,1.58
2023-01-06T06:42:14.280Z,1.73
2023-01-06T06:44:40.491Z,2.08
2023-01-06T06:47:06.703Z,2.55
2023-01-06T06:49:32.931Z,1.77
2023-01-06T06:51:59.179Z,1.92
2023-01-06T06:54:25.402Z,2.22
2023-01-06T06:56:51.607Z,1.88
2023-01-06T06:59:17.822Z,2.17
2023-01-06T07:01:44.227Z,2.00
2023-01-06T07:04:10.560Z,2.50
2023-01-06T07:06:36.829Z,1.65
2023-01-06T07:09:03.081Z,1.35
2023-01-06T07:11:29.358Z,1.73
2023-01-06T07:13:55.779Z,2.50
2023-01-06T07:16:23.098Z,1.50
2023-01-06T07:18:49.327Z,2.50
2023-01-06T07:21:15.537Z,1.73
2023-01-06T07:23:41.749Z,1.73
2023-01-06T07:26:08.040Z,1.90
2023-01-06T07:28:34.276Z,1.67
2023-01-06T07:31:00.719Z,1.23
2023-01-06T07:33:27.070Z,1.50
2023-01-06T07:35:54.006Z,1.30
2023-01-06T07:38:20.498Z,1.30
2023-01-06T07:40:46.771Z,1.75
2023-01-06T07:43:13.043Z,0.98
2023-01-06T07:45:39.286Z,1.42
2023-01-06T07:51:49.869Z,1.73
2023-01-06T07:54:16.114Z,1.85
2023-01-06T07:56:44.031Z,2.25
2023-01-06T07:59:10.498Z,2.60
2023-01-06T08:01:37.268Z,3.63
2023-01-06T08:06:29.904Z,1.85
2023-01-06T08:08:56.196Z,1.52
2023-01-06T08:11:22.445Z,1.45
2023-01-06T08:13:48.656Z,1.25
2023-01-06T08:16:14.900Z,1.45
2023-01-06T08:18:41.162Z,1.05
2023-01-06T08:21:08.644Z,1.45
2023-01-06T08:23:35.572Z,1.35
2023-01-06T08:26:05.874Z,0.93
2023-01-06T08:28:32.199Z,1.08
2023-01-06T08:30:58.683Z,1.13
2023-01-06T08:33:25.840Z,1.15
2023-01-06T08:36:13.147Z,1.20
2023-01-06T08:38:39.396Z,1.38
2023-01-06T08:41:06.124Z,1.40
2023-01-06T08:43:32.503Z,1.63
2023-01-06T08:45:59.889Z,1.70
2023-01-06T08:48:26.311Z,1.13
2023-01-06T08:50:52.524Z,2.17
2023-01-06T08:53:18.861Z,2.15
2023-01-06T08:55:45.199Z,2.33
2023-01-06T08:58:11.706Z,1.80
2023-01-06T09:00:39.932Z,1.83
2023-01-06T09:03:06.466Z,1.90
2023-01-06T09:05:32.864Z,2.00
2023-01-06T09:07:59.357Z,1.80
2023-01-06T09:10:25.864Z,1.85
2023-01-06T09:12:52.125Z,1.92
2023-01-06T09:15:18.462Z,1.30
2023-01-06T09:17:44.663Z,1.20
2023-01-06T09:20:11.095Z,1.27
2023-01-06T09:22:37.355Z,1.35
2023-01-06T09:25:03.959Z,1.25
2023-01-06T09:27:30.157Z,0.93
2023-01-06T09:29:56.363Z,1.33
2023-01-06T09:32:22.573Z,1.70
2023-01-06T09:34:48.801Z,1.35
2023-01-06T09:37:15.049Z,1.70
2023-01-06T09:39:41.330Z,1.20
2023-01-06T09:42:15.615Z,1.83
2023-01-06T09:44:44.663Z,1.27
2023-01-06T09:47:12.793Z,1.30
2023-01-06T09:49:52.298Z,1.23
2023-01-06T09:54:56.124Z,1.02
2023-01-06T09:57:26.828Z,1.10
2023-01-06T09:59:58.443Z,1.60
2023-01-06T10:02:28.944Z,1.52
2023-01-06T10:04:55.260Z,0.98
2023-01-06T10:07:26.288Z,1.40
2023-01-06T10:10:07.363Z,1.48
2023-01-06T10:12:45.710Z,1.20
2023-01-06T10:15:16.353Z,1.10
2023-01-06T10:18:01.424Z,1.13
2023-01-06T10:20:50.590Z,1.13
2023-01-06T10:23:35.813Z,1.23
2023-01-06T10:26:05.093Z,0.98
2023-01-06T10:28:35.846Z,1.10
2023-01-06T10:31:06.874Z,1.98
2023-01-06T10:33:37.695Z,1.20
2023-01-06T10:36:09.192Z,1.40
2023-01-06T10:38:39.258Z,1.35
2023-01-06T10:41:27.530Z,1.30
2023-01-06T10:43:53.829Z,1.45
2023-01-06T10:46:20.201Z,1.20
2023-01-06T10:48:49.203Z,1.20
2023-01-06T10:51:34.795Z,1.40
2023-01-06T10:54:02.684Z,1.52
2023-01-06T10:56:29.222Z,1.17
2023-01-06T10:58:57.633Z,1.40
2023-01-06T11:01:25.211Z,1.88
2023-01-06T11:04:09.899Z,1.40
2023-01-06T11:06:38.545Z,1.48
2023-01-06T11:09:21.350Z,1.30
2023-01-06T11:11:48.378Z,1.50
2023-01-06T11:14:16.995Z,1.65
2023-01-06T11:16:43.716Z,1.58
2023-01-06T11:19:22.213Z,1.83
2023-01-06T11:21:48.525Z,1.73
2023-01-06T11:24:14.708Z,1.65
2023-01-06T11:26:45.616Z,2.10
2023-01-06T11:29:23.503Z,1.77
2023-01-06T11:31:49.912Z,1.60
2023-01-06T11:34:23.776Z,1.92
2023-01-06T11:36:50.445Z,1.52
2023-01-06T11:39:24.346Z,1.73
2023-01-06T11:41:52.140Z,1.63
2023-01-06T11:44:30.494Z,1.65
2023-01-06T11:46:58.874Z,1.90
2023-01-06T11:49:28.965Z,2.20
2023-01-06T11:52:03.697Z,2.03
2023-01-06T11:54:32.375Z,2.03
2023-01-06T11:57:03.979Z,1.95
2023-01-06T11:59:36.526Z,2.05
2023-01-06T12:02:03.125Z,1.70
2023-01-06T12:04:48.188Z,1.52
2023-01-06T12:07:29.933Z,1.90
2023-01-06T12:09:59.742Z,1.80
2023-01-06T12:12:27.202Z,1.63
2023-01-06T12:14:54.221Z,1.48
2023-01-06T12:17:43.344Z,1.73
2023-01-06T12:20:13.248Z,1.77
2023-01-06T12:22:39.647Z,1.80
2023-01-06T12:25:10.088Z,2.22
2023-01-06T12:27:42.570Z,1.65
2023-01-06T12:30:13.679Z,2.10
2023-01-06T12:32:43.010Z,1.70
2023-01-06T12:35:13.075Z,1.73
2023-01-06T12:37:42.582Z,1.60
2023-01-06T12:40:14.907Z,2.10
2023-01-06T12:42:45.074Z,1.85
2023-01-06T12:45:15.843Z,2.17
2023-01-06T12:47:45.547Z,1.40
2023-01-06T12:50:17.834Z,1.88
2023-01-06T12:52:49.275Z,1.65
2023-01-06T12:55:23.085Z,1.73
2023-01-06T12:57:53.739Z,1.65
2023-01-06T13:00:35.147Z,1.50
2023-01-06T13:03:15.535Z,1.48
2023-01-06T13:06:00.509Z,1.65
2023-01-06T13:08:45.496Z,1.90
2023-01-06T13:11:20.845Z,1.67
2023-01-06T13:14:02.121Z,1.70
2023-01-06T13:16:28.422Z,1.58
2023-01-06T13:18:59.565Z,1.67
2023-01-06T13:21:26.132Z,1.30
2023-01-06T13:23:52.498Z,1.45
2023-01-06T13:26:37.219Z,1.58
2023-01-06T13:29:20.570Z,1.45
2023-01-06T13:31:46.752Z,1.52
2023-01-06T13:34:31.629Z,1.95
2023-01-06T13:37:16.259Z,1.67
2023-01-06T13:39:43.674Z,1.55
2023-01-06T13:42:13.824Z,1.50
2023-01-06T13:44:40.359Z,1.50
2023-01-06T13:47:08.452Z,1.90
2023-01-06T13:49:36.957Z,1.73
2023-01-06T13:52:04.015Z,1.48
2023-01-06T13:54:56.325Z,2.60
2023-01-06T13:57:22.512Z,1.88
2023-01-06T14:00:08.638Z,1.23
2023-01-06T14:02:34.924Z,1.42
2023-01-06T14:05:21.753Z,1.48
2023-01-06T14:07:50.057Z,1.33
2023-01-06T14:10:31.478Z,1.45
2023-01-06T14:12:57.891Z,2.42
2023-01-06T14:15:31.562Z,1.75
2023-01-06T14:17:58.540Z,1.63
2023-01-06T14:20:30.481Z,1.70
2023-01-06T14:23:00.567Z,1.27
2023-01-06T14:25:27.435Z,1.40
2023-01-06T14:27:53.634Z,1.20
2023-01-06T14:30:21.006Z,1.52
2023-01-06T14:32:47.289Z,1.35
2023-01-06T14:35:19.016Z,1.35
2023-01-06T14:37:50.468Z,1.40
2023-01-06T14:40:18.820Z,1.27
2023-01-06T14:42:45.388Z,1.45
2023-01-06T14:45:17.951Z,1.75
2023-01-06T14:47:46.911Z,1.67
2023-01-06T14:50:19.181Z,1.40
2023-01-06T14:52:57.359Z,2.22
2023-01-06T14:55:25.259Z,1.70
2023-01-06T14:57:51.553Z,1.33
2023-01-06T15:00:24.902Z,1.42
2023-01-06T15:02:52.858Z,1.50
2023-01-06T15:05:22.137Z,1.58
2023-01-06T15:08:02.473Z,1.45
2023-01-06T15:10:29.873Z,1.35
2023-01-06T15:12:56.939Z,1.95
2023-01-06T15:15:26.651Z,1.73
2023-01-06T15:17:54.150Z,1.63
2023-01-06T15:20:21.776Z,1.80
2023-01-06T15:22:49.206Z,1.42
2023-01-06T15:25:20.170Z,1.40
2023-01-06T15:27:48.316Z,1.40
2023-01-06T15:30:16.822Z,2.42
2023-01-06T15:32:43.393Z,1.65
2023-01-06T15:35:13.686Z,1.33
2023-01-06T15:37:40.519Z,1.58
2023-01-06T15:40:07.352Z,1.42
2023-01-06T15:42:36.035Z,1.83
2023-01-06T15:45:03.667Z,1.25
2023-01-06T15:47:40.659Z,1.40
2023-01-06T15:50:07.979Z,1.40
2023-01-06T15:52:52.263Z,2.20
2023-01-06T15:55:21.532Z,1.48
2023-01-06T15:57:51.412Z,1.20
2023-01-06T16:00:26.285Z,1.45
2023-01-06T16:02:52.695Z,1.13
2023-01-06T16:05:35.470Z,1.50
2023-01-06T16:08:02.818Z,1.48
2023-01-06T16:10:34.644Z,1.42
2023-01-06T16:13:10.131Z,1.50
2023-01-06T16:15:50.171Z,1.38
2023-01-06T16:18:18.747Z,1.30
2023-01-06T16:20:45.220Z,1.75
2023-01-06T16:23:37.739Z,1.98
2023-01-06T16:26:15.488Z,1.55
2023-01-06T16:29:02.565Z,1.48
2023-01-06T16:31:38.601Z,1.45
2023-01-06T16:34:24.724Z,2.42
2023-01-06T16:36:52.017Z,3.10
2023-01-06T16:39:18.258Z,2.75
2023-01-06T16:41:59.527Z,3.40
2023-01-06T16:44:26.105Z,2.75
2023-01-06T16:46:52.360Z,2.80
2023-01-06T16:49:18.850Z,2.53
2023-01-06T16:51:45.553Z,1.98
2023-01-06T16:56:39.714Z,2.50
2023-01-06T16:59:11.341Z,2.15
2023-01-06T17:01:37.672Z,2.35
2023-01-06T17:04:03.983Z,2.63
2023-01-06T17:06:31.081Z,2.30
2023-01-06T17:09:00.193Z,1.80
2023-01-06T17:11:27.270Z,2.08
2023-01-06T17:13:55.637Z,1.80
2023-01-06T17:16:26.908Z,2.92
2023-01-06T17:18:54.514Z,2.17
2023-01-06T17:21:24.477Z,2.42
2023-01-06T17:23:54.440Z,2.13
2023-01-06T17:26:21.320Z,1.50
2023-01-06T17:28:49.227Z,1.50
2023-01-06T17:31:32.695Z,1.92
2023-01-06T17:34:03.183Z,1.88
2023-01-06T17:36:35.153Z,1.75
2023-01-06T17:39:01.923Z,1.70
2023-01-06T17:41:29.341Z,1.88
2023-01-06T17:43:55.565Z,2.10
2023-01-06T17:46:35.465Z,2.20
2023-01-06T17:49:07.527Z,2.35
2023-01-06T17:51:33.999Z,1.83
2023-01-06T17:54:19.740Z,1.77
2023-01-06T17:59:15.608Z,1.60
2023-01-06T18:01:41.843Z,1.70
2023-01-06T18:04:12.371Z,1.65
2023-01-06T18:06:40.176Z,1.90
2023-01-06T18:09:15.129Z,1.25
2023-01-06T18:11:43.688Z,1.77
2023-01-06T18:14:15.575Z,1.85
2023-01-06T18:16:44.252Z,1.73
2023-01-06T18:19:22.254Z,1.83
2023-01-06T18:21:49.741Z,1.80
2023-01-06T18:24:18.426Z,2.00
2023-01-06T18:26:53.436Z,1.92
2023-01-06T18:29:22.540Z,1.42
2023-01-06T18:31:49.761Z,2.08
2023-01-06T18:34:18.686Z,2.53
2023-01-06T18:36:45.378Z,1.65
2023-01-06T18:41:37.773Z,1.73
2023-01-06T18:44:15.784Z,1.45
2023-01-06T18:46:41.986Z,1.92
2023-01-06T18:49:13.687Z,2.42
2023-01-06T18:51:39.876Z,2.40
2023-01-06T18:54:17.544Z,2.53
2023-01-06T18:56:44.457Z,2.33
2023-01-06T18:59:14.796Z,2.03
2023-01-06T19:01:42.134Z,2.05
2023-01-06T19:04:25.922Z,2.22
2023-01-06T19:06:53.816Z,1.95
2023-01-06T19:09:19.992Z,2.47
2023-01-06T19:11:46.783Z,2.17
2023-01-06T19:14:19.396Z,2.75
2023-01-06T19:16:50.804Z,2.03
2023-01-06T19:19:16.975Z,2.13
2023-01-06T19:21:43.900Z,1.90
2023-01-06T19:24:28.465Z,1.90
2023-01-06T19:26:56.293Z,2.30
2023-01-06T19:29:25.782Z,2.22
2023-01-06T19:31:54.400Z,2.22
2023-01-06T19:34:21.716Z,2.45
2023-01-06T19:36:48.917Z,2.17
2023-01-06T19:39:15.081Z,2.03
2023-01-06T19:41:41.329Z,2.58
2023-01-06T19:44:07.515Z,2.90
2023-01-06T19:46:38.668Z,2.30
2023-01-06T19:49:31.220Z,2.45
2023-01-06T19:51:57.496Z,2.63
2023-01-06T19:54:28.476Z,2.33
2023-01-06T19:56:55.859Z,2.50
2023-01-06T19:59:27.150Z,1.88
2023-01-06T20:01:58.207Z,2.53
2023-01-06T20:04:26.302Z,2.20
2023-01-06T20:06:52.734Z,2.10
2023-01-06T20:09:21.580Z,2.10
2023-01-06T20:11:48.492Z,1.90
2023-01-06T20:14:14.711Z,2.20
2023-01-06T20:16:41.062Z,1.92
2023-01-06T20:19:07.454Z,2.45
2023-01-06T20:21:33.901Z,2.05
2023-01-06T20:24:00.109Z,2.40
2023-01-06T20:26:26.534Z,2.30
2023-01-06T20:28:52.754Z,2.15
2023-01-06T20:31:19.001Z,2.20
2023-01-06T20:33:45.977Z,2.38
2023-01-06T20:36:16.798Z,1.92
2023-01-06T20:38:45.789Z,2.05
2023-01-06T20:41:12.111Z,1.95
2023-01-06T20:43:38.457Z,2.03
2023-01-06T20:46:04.867Z,1.92
2023-01-06T20:48:31.075Z,1.85
2023-01-06T20:50:57.625Z,2.10
2023-01-06T20:53:23.919Z,2.05
2023-01-06T20:55:50.101Z,2.15
2023-01-06T20:58:16.378Z,2.10
2023-01-06T21:00:42.569Z,2.35
2023-01-06T21:03:08.827Z,2.28
2023-01-06T21:05:35.288Z,2.10
2023-01-06T21:08:01.555Z,1.45
2023-01-06T21:10:27.753Z,2.33
2023-01-06T21:12:54.011Z,1.90
2023-01-06T21:15:20.268Z,2.00
2023-01-06T21:17:46.438Z,2.20
2023-01-06T21:20:13.795Z,2.28
2023-01-06T21:22:40.031Z,1.92
2023-01-06T21:25:06.474Z,2.20
2023-01-06T21:27:32.666Z,1.98
2023-01-06T21:29:58.870Z,2.15
2023-01-06T21:32:25.054Z,1.75
2023-01-06T21:34:51.455Z,2.47
2023-01-06T21:37:17.850Z,1.88
2023-01-06T21:39:45.972Z,1.92
2023-01-06T21:42:32.286Z,1.60
2023-01-06T21:44:58.475Z,2.08
2023-01-06T21:47:24.663Z,1.98
2023-01-06T21:49:50.848Z,2.03
2023-01-06T21:52:17.205Z,1.75
2023-01-06T21:54:44.137Z,1.85
2023-01-06T21:57:10.770Z,2.83
2023-01-06T21:59:37.156Z,3.40
2023-01-06T22:02:03.995Z,2.28
2023-01-06T22:04:30.472Z,2.05
2023-01-06T22:06:58.916Z,2.53
2023-01-06T22:09:25.805Z,2.03
2023-01-06T22:11:52.755Z,2.42
2023-01-06T22:14:19.218Z,2.22
2023-01-06T22:16:45.632Z,2.30
2023-01-06T22:19:12.766Z,2.15
2023-01-06T22:21:40.058Z,1.65
2023-01-06T22:24:07.588Z,1.73
2023-01-06T22:26:33.789Z,1.95
2023-01-06T22:28:59.965Z,1.50
2023-01-06T22:31:26.165Z,1.83
2023-01-06T22:33:52.385Z,1.45
2023-01-06T22:36:18.631Z,1.52
2023-01-06T22:38:45.046Z,1.75
2023-01-06T22:41:12.428Z,1.67
2023-01-06T22:43:38.757Z,1.25
2023-01-06T22:46:05.115Z,1.50
2023-01-06T22:48:31.352Z,1.30
2023-01-06T22:51:01.585Z,1.30
2023-01-06T22:53:29.008Z,1.58
2023-01-06T22:55:59.293Z,1.73
2023-01-06T22:58:25.740Z,1.45
2023-01-06T23:00:52.313Z,2.13
2023-01-06T23:03:19.382Z,1.65
2023-01-06T23:05:53.535Z,1.77
2023-01-06T23:08:19.733Z,1.73
2023-01-06T23:10:45.911Z,1.60
2023-01-06T23:13:12.189Z,1.45
2023-01-06T23:15:38.421Z,1.92
2023-01-06T23:18:06.063Z,1.80
2023-01-06T23:20:32.249Z,1.48
2023-01-06T23:22:58.440Z,1.85
2023-01-06T23:25:24.639Z,2.08
2023-01-06T23:27:50.836Z,1.83
2023-01-06T23:30:17.044Z,2.03
2023-01-06T23:32:43.358Z,2.05
2023-01-06T23:35:09.591Z,2.25
2023-01-06T23:37:35.842Z,1.85
2023-01-06T23:40:02.084Z,2.13
2023-01-06T23:42:28.791Z,1.95
2023-01-06T23:44:56.528Z,1.80
2023-01-06T23:47:22.757Z,1.48
2023-01-06T23:49:49.045Z,1.83
2023-01-06T23:52:15.236Z,1.63
2023-01-06T23:54:41.432Z,1.48
2023-01-06T23:57:07.710Z,1.45
2023-01-06T23:59:33.923Z,1.98
